createdAt,value
2023-01-02T00:02:19.865Z,13.80
2023-01-02T00:04:48.543Z,14.65
2023-01-02T00:07:16.983Z,14.38
2023-01-02T00:09:48.273Z,14.75
2023-01-02T00:12:17.089Z,14.68
2023-01-02T00:14:46.654Z,14.95
2023-01-02T00:17:17.683Z,16.13
2023-01-02T00:19:48.990Z,15.63
2023-01-02T00:22:17.805Z,15.15
2023-01-02T00:24:46.523Z,15.75
2023-01-02T00:27:16.107Z,15.25
2023-01-02T00:29:45.804Z,16.48
2023-01-02T00:32:14.713Z,15.38
2023-01-02T00:34:43.540Z,15.02
2023-01-02T00:37:13.919Z,14.93
2023-01-02T00:39:42.591Z,14.43
2023-01-02T00:42:11.277Z,15.38
2023-01-02T00:44:40.689Z,15.95
2023-01-02T00:47:09.312Z,17.02
2023-01-02T00:49:38.031Z,16.00
2023-01-02T00:52:06.911Z,14.93
2023-01-02T00:54:38.585Z,15.13
2023-01-02T00:57:07.295Z,15.07
2023-01-02T00:59:37.225Z,15.77
2023-01-02T01:02:06.061Z,14.85
2023-01-02T01:04:38.043Z,15.52
2023-01-02T01:07:12.757Z,14.55
2023-01-02T01:09:43.136Z,15.15
2023-01-02T01:12:13.986Z,13.88
2023-01-02T01:14:43.947Z,14.13
2023-01-02T01:17:15.192Z,13.30
2023-01-02T01:19:47.365Z,13.68
2023-01-02T01:22:18.564Z,13.60
2023-01-02T01:24:50.804Z,15.70
2023-01-02T01:27:19.844Z,14.48
2023-01-02T01:29:48.451Z,15.10
2023-01-02T01:32:17.142Z,16.80
2023-01-02T01:34:47.912Z,17.35
2023-01-02T01:37:16.921Z,16.80
2023-01-02T01:39:45.606Z,18.20
2023-01-02T01:42:17.813Z,18.35
2023-01-02T01:44:50.261Z,20.17
2023-01-02T01:47:32.528Z,22.27
2023-01-02T01:50:06.899Z,22.70
2023-01-02T01:52:40.614Z,23.55
2023-01-02T01:55:14.782Z,23.20
2023-01-02T01:57:51.731Z,27.10
2023-01-02T02:00:20.554Z,27.23
2023-01-02T02:02:55.852Z,28.17
2023-01-02T02:05:29.804Z,27.40
2023-01-02T02:08:08.546Z,26.95
2023-01-02T02:10:38.879Z,29.63
2023-01-02T02:13:08.924Z,28.98
2023-01-02T02:15:48.603Z,30.65
2023-01-02T02:18:31.400Z,30.42
2023-01-02T02:21:05.771Z,32.70
2023-01-02T02:24:04.291Z,34.65
2023-01-02T02:27:09.579Z,33.67
2023-01-02T02:30:14.457Z,34.88
2023-01-02T02:33:06.069Z,35.15
2023-01-02T02:35:49.461Z,34.45
2023-01-02T02:38:31.207Z,34.30
2023-01-02T02:41:08.857Z,32.85
2023-01-02T02:44:00.428Z,34.47
2023-01-02T02:46:42.865Z,35.78
2023-01-02T02:49:21.443Z,35.88
2023-01-02T02:51:57.677Z,34.47
2023-01-02T02:54:32.281Z,35.10
2023-01-02T02:57:02.423Z,34.60
2023-01-02T02:59:32.214Z,38.03
2023-01-02T03:02:04.301Z,36.00
2023-01-02T03:04:33.680Z,35.65
2023-01-02T03:07:18.286Z,36.10
2023-01-02T03:09:57.657Z,37.00
2023-01-02T03:12:37.945Z,38.63
2023-01-02T03:15:18.448Z,38.20
2023-01-02T03:18:02.862Z,35.28
2023-01-02T03:20:39.306Z,35.67
2023-01-02T03:23:15.560Z,37.30
2023-01-02T03:25:46.188Z,35.60
2023-01-02T03:28:18.937Z,34.83
2023-01-02T03:30:51.030Z,33.90
2023-01-02T03:33:27.019Z,35.13
2023-01-02T03:36:02.210Z,34.83
2023-01-02T03:38:35.995Z,32.40
2023-01-02T03:41:11.063Z,30.73
2023-01-02T03:43:42.282Z,33.08
2023-01-02T03:46:19.179Z,32.92
2023-01-02T03:48:57.201Z,30.15
2023-01-02T03:51:25.899Z,28.65
2023-01-02T03:53:55.498Z,31.05
2023-01-02T03:56:31.074Z,30.67
2023-01-02T03:59:07.882Z,29.08
2023-01-02T04:01:42.544Z,26.50
2023-01-02T04:04:19.253Z,26.98
2023-01-02T04:06:52.975Z,28.90
2023-01-02T04:09:25.443Z,31.88
2023-01-02T04:11:58.091Z,32.10
2023-01-02T04:14:32.606Z,32.63
2023-01-02T04:17:03.779Z,29.48
2023-01-02T04:19:42.310Z,32.25
2023-01-02T04:22:17.126Z,32.58
2023-01-02T04:24:52.006Z,34.55
2023-01-02T04:27:26.784Z,32.95
2023-01-02T04:29:58.138Z,31.52
2023-01-02T04:32:33.163Z,30.90
2023-01-02T04:35:07.712Z,29.67
2023-01-02T04:37:40.300Z,28.23
2023-01-02T04:40:15.129Z,28.73
2023-01-02T04:42:44.182Z,28.23
2023-01-02T04:45:14.092Z,27.73
2023-01-02T04:47:44.118Z,28.88
2023-01-02T04:50:15.455Z,29.75
2023-01-02T04:52:44.297Z,30.25
2023-01-02T04:55:12.995Z,28.27
2023-01-02T04:57:41.573Z,28.80
2023-01-02T05:00:11.186Z,30.80
2023-01-02T05:02:41.975Z,31.17
2023-01-02T05:05:11.589Z,30.17
2023-01-02T05:07:41.735Z,28.83
2023-01-02T05:10:11.522Z,28.63
2023-01-02T05:12:41.599Z,27.98
2023-01-02T05:15:15.622Z,27.20
2023-01-02T05:17:44.745Z,27.13
2023-01-02T05:20:15.076Z,25.83
2023-01-02T05:23:03.577Z,26.95
2023-01-02T05:25:35.680Z,29.55
2023-01-02T05:28:07.028Z,32.30
2023-01-02T05:30:39.071Z,36.15
2023-01-02T05:33:08.903Z,30.10
2023-01-02T05:35:38.371Z,36.63
2023-01-02T05:38:08.780Z,37.70
2023-01-02T05:40:37.652Z,32.20
2023-01-02T05:43:06.592Z,30.15
2023-01-02T05:45:36.275Z,32.28
2023-01-02T05:48:05.350Z,32.72
2023-01-02T05:50:34.993Z,31.50
2023-01-02T05:53:03.925Z,28.15
2023-01-02T05:55:34.047Z,21.30
2023-01-02T05:58:05.375Z,23.10
2023-01-02T06:00:35.871Z,17.42
2023-01-02T06:03:04.591Z,18.45
2023-01-02T06:05:33.462Z,15.85
2023-01-02T06:08:02.153Z,14.57
2023-01-02T06:10:31.845Z,14.57
2023-01-02T06:13:01.954Z,14.43
2023-01-02T06:15:30.567Z,14.38
2023-01-02T06:17:59.223Z,13.68
2023-01-02T06:20:28.119Z,14.10
2023-01-02T06:22:57.873Z,13.98
2023-01-02T06:25:26.704Z,14.05
2023-01-02T06:27:55.170Z,14.07
2023-01-02T06:30:26.494Z,15.00
2023-01-02T06:32:58.554Z,15.20
2023-01-02T06:35:27.485Z,14.93
2023-01-02T06:37:56.088Z,15.00
2023-01-02T06:40:25.820Z,16.33
2023-01-02T06:42:59.878Z,15.23
2023-01-02T06:45:30.520Z,15.95
2023-01-02T06:48:01.268Z,15.50
2023-01-02T06:50:34.898Z,15.90
2023-01-02T06:53:06.193Z,17.77
2023-01-02T06:55:36.334Z,16.65
2023-01-02T06:58:11.130Z,18.05
2023-01-02T07:00:43.668Z,16.67
2023-01-02T07:03:12.343Z,16.80
2023-01-02T07:05:41.047Z,17.27
2023-01-02T07:08:09.863Z,17.83
2023-01-02T07:10:38.767Z,18.98
2023-01-02T07:13:08.932Z,18.30
2023-01-02T07:15:38.004Z,17.80
2023-01-02T07:18:08.160Z,16.33
2023-01-02T07:20:36.833Z,15.98
2023-01-02T07:23:05.421Z,17.23
2023-01-02T07:25:35.365Z,16.50
2023-01-02T07:28:07.084Z,19.13
2023-01-02T07:30:35.745Z,18.42
2023-01-02T07:33:04.293Z,16.63
2023-01-02T07:35:34.389Z,18.08
2023-01-02T07:38:02.774Z,17.90
2023-01-02T07:40:35.351Z,18.75
2023-01-02T07:43:05.076Z,18.05
2023-01-02T07:45:34.932Z,17.17
2023-01-02T07:48:05.587Z,17.70
2023-01-02T07:50:37.014Z,17.33
2023-01-02T07:53:06.004Z,18.27
2023-01-02T07:55:37.826Z,18.63
2023-01-02T07:58:06.584Z,19.35
2023-01-02T08:00:36.255Z,20.00
2023-01-02T08:03:05.289Z,19.85
2023-01-02T08:05:36.861Z,19.05
2023-01-02T08:08:06.929Z,18.80
2023-01-02T08:10:35.613Z,17.00
2023-01-02T08:13:04.289Z,18.73
2023-01-02T08:15:32.871Z,18.50
2023-01-02T08:18:01.434Z,16.25
2023-01-02T08:20:30.490Z,15.32
2023-01-02T08:23:01.936Z,15.90
2023-01-02T08:25:30.816Z,14.43
2023-01-02T08:27:59.565Z,14.43
2023-01-02T08:30:28.170Z,13.70
2023-01-02T08:32:56.850Z,13.43
2023-01-02T08:35:38.064Z,13.38
2023-01-02T08:38:10.283Z,12.18
2023-01-02T08:40:39.725Z,12.93
2023-01-02T08:43:08.915Z,12.65
2023-01-02T08:45:37.812Z,12.70
2023-01-02T08:48:20.639Z,13.07
2023-01-02T08:50:51.143Z,12.75
2023-01-02T08:53:21.089Z,11.98
2023-01-02T08:55:49.885Z,12.38
2023-01-02T08:58:21.107Z,12.60
2023-01-02T09:00:49.487Z,12.43
2023-01-02T09:03:18.168Z,11.55
2023-01-02T09:05:46.798Z,12.80
2023-01-02T09:08:15.154Z,12.07
2023-01-02T09:10:45.634Z,11.65
2023-01-02T09:13:14.462Z,13.55
2023-01-02T09:15:46.373Z,14.88
2023-01-02T09:18:14.803Z,15.85
2023-01-02T09:20:43.330Z,16.17
2023-01-02T09:23:17.575Z,15.88
2023-01-02T09:25:49.621Z,15.98
2023-01-02T09:28:18.077Z,13.98
2023-01-02T09:30:47.018Z,13.68
2023-01-02T09:33:20.302Z,13.05
2023-01-02T09:35:49.350Z,12.93
2023-01-02T09:38:18.200Z,13.82
2023-01-02T09:40:56.521Z,13.98
2023-01-02T09:43:33.416Z,12.35
2023-01-02T09:46:04.656Z,12.15
2023-01-02T09:48:37.753Z,12.43
2023-01-02T09:51:08.081Z,11.85
2023-01-02T09:53:37.138Z,11.77
2023-01-02T09:56:21.048Z,12.27
2023-01-02T09:58:56.244Z,11.75
2023-01-02T10:01:34.995Z,11.32
2023-01-02T10:04:14.624Z,11.05
2023-01-02T10:06:49.043Z,8.82
2023-01-02T10:09:24.303Z,7.50
2023-01-02T10:12:03.376Z,7.72
2023-01-02T10:14:44.740Z,7.13
2023-01-02T10:17:17.814Z,7.55
2023-01-02T10:19:54.159Z,7.15
2023-01-02T10:22:30.358Z,6.60
2023-01-02T10:25:07.438Z,7.13
2023-01-02T10:27:43.447Z,6.20
2023-01-02T10:30:21.361Z,7.07
2023-01-02T10:32:57.401Z,7.00
2023-01-02T10:35:38.669Z,7.20
2023-01-02T10:38:07.711Z,6.28
2023-01-02T10:40:36.601Z,6.00
2023-01-02T10:43:07.093Z,6.50
2023-01-02T10:45:35.968Z,6.05
2023-01-02T10:48:05.340Z,5.97
2023-01-02T10:50:41.844Z,5.32
2023-01-02T10:53:21.176Z,5.65
2023-01-02T10:55:50.538Z,5.80
2023-01-02T10:58:24.367Z,5.88
2023-01-02T11:01:04.485Z,5.30
2023-01-02T11:03:33.095Z,5.57
2023-01-02T11:06:25.670Z,5.25
2023-01-02T11:09:00.264Z,5.18
2023-01-02T11:11:30.669Z,4.43
2023-01-02T11:14:11.716Z,4.97
2023-01-02T11:16:42.223Z,4.50
2023-01-02T11:19:27.472Z,4.70
2023-01-02T11:21:58.800Z,5.00
2023-01-02T11:24:28.914Z,4.72
2023-01-02T11:27:02.219Z,4.90
2023-01-02T11:29:36.234Z,4.70
2023-01-02T11:32:06.318Z,5.57
2023-01-02T11:34:37.720Z,4.88
2023-01-02T11:37:16.313Z,4.75
2023-01-02T11:39:59.880Z,4.72
2023-01-02T11:42:55.006Z,5.13
2023-01-02T11:45:25.176Z,4.55
2023-01-02T11:47:58.684Z,4.60
2023-01-02T11:50:29.447Z,4.13
2023-01-02T11:53:04.175Z,4.22
2023-01-02T11:55:44.775Z,4.30
2023-01-02T11:58:23.716Z,4.55
2023-01-02T12:00:59.559Z,4.20
2023-01-02T12:03:30.877Z,4.40
2023-01-02T12:06:17.824Z,4.32
2023-01-02T12:09:02.199Z,4.57
2023-01-02T12:11:47.752Z,4.00
2023-01-02T12:14:19.743Z,4.18
2023-01-02T12:17:16.174Z,4.18
2023-01-02T12:20:18.039Z,3.70
2023-01-02T12:23:31.804Z,4.00
2023-01-02T12:26:10.660Z,4.32
2023-01-02T12:29:01.262Z,4.60
2023-01-02T12:31:49.732Z,4.60
2023-01-02T12:34:35.629Z,4.30
2023-01-02T12:37:24.453Z,4.00
2023-01-02T12:40:20.980Z,3.92
2023-01-02T12:43:03.683Z,4.22
2023-01-02T12:45:40.783Z,4.18
2023-01-02T12:48:24.967Z,4.30
2023-01-02T12:51:09.012Z,4.13
2023-01-02T12:54:19.077Z,4.20
2023-01-02T12:57:07.628Z,4.13
2023-01-02T13:00:13.260Z,4.38
2023-01-02T13:03:10.523Z,4.22
2023-01-02T13:05:49.487Z,4.85
2023-01-02T13:08:33.255Z,5.40
2023-01-02T13:11:05.709Z,5.25
2023-01-02T13:13:40.520Z,5.95
2023-01-02T13:16:25.300Z,5.95
2023-01-02T13:19:17.812Z,5.50
2023-01-02T13:21:52.996Z,6.10
2023-01-02T13:24:27.240Z,5.15
2023-01-02T13:26:58.395Z,5.57
2023-01-02T13:29:30.966Z,2.80
2023-01-02T13:31:59.664Z,2.03
2023-01-02T13:34:32.417Z,1.20
2023-01-02T13:37:07.128Z,1.25
2023-01-02T13:39:50.427Z,1.77
2023-01-02T13:42:43.114Z,1.60
2023-01-02T13:45:19.895Z,2.10
2023-01-02T13:47:54.138Z,1.40
2023-01-02T13:50:32.263Z,1.77
2023-01-02T13:53:06.893Z,1.27
2023-01-02T13:55:41.039Z,1.65
2023-01-02T13:58:43.881Z,1.50
2023-01-02T14:01:43.210Z,1.20
2023-01-02T14:04:33.623Z,1.42
2023-01-02T14:07:45.379Z,1.50
2023-01-02T14:10:42.167Z,1.45
2023-01-02T14:13:22.203Z,1.30
2023-01-02T14:16:42.444Z,1.40
2023-01-02T14:19:20.945Z,1.63
2023-01-02T14:22:01.912Z,1.60
2023-01-02T14:24:35.100Z,1.73
2023-01-02T14:27:10.503Z,1.80
2023-01-02T14:29:53.277Z,1.40
2023-01-02T14:32:31.574Z,1.40
2023-01-02T14:35:04.274Z,1.23
2023-01-02T14:37:41.199Z,1.00
2023-01-02T14:40:37.011Z,1.30
2023-01-02T14:43:31.588Z,1.30
2023-01-02T14:46:09.219Z,1.67
2023-01-02T14:48:49.175Z,1.27
2023-01-02T14:51:23.256Z,1.48
2023-01-02T14:53:56.120Z,1.30
2023-01-02T14:56:33.132Z,1.20
2023-01-02T14:59:07.566Z,1.30
2023-01-02T15:01:44.854Z,1.52
2023-01-02T15:04:25.069Z,1.10
2023-01-02T15:07:10.783Z,1.30
2023-01-02T15:09:45.539Z,1.38
2023-01-02T15:12:41.160Z,1.77
2023-01-02T15:15:14.025Z,1.35
2023-01-02T15:17:44.579Z,1.90
2023-01-02T15:20:21.567Z,1.60
2023-01-02T15:22:53.765Z,1.88
2023-01-02T15:25:37.795Z,2.10
2023-01-02T15:28:07.583Z,2.10
2023-01-02T15:30:40.662Z,3.40
2023-01-02T15:33:29.606Z,4.35
2023-01-02T15:36:04.100Z,2.75
2023-01-02T15:38:34.875Z,1.85
2023-01-02T15:41:11.780Z,1.70
2023-01-02T15:43:59.285Z,2.40
2023-01-02T15:46:29.832Z,3.50
2023-01-02T15:49:02.723Z,3.85
2023-01-02T15:51:41.554Z,5.43
2023-01-02T15:54:15.219Z,7.47
2023-01-02T15:56:44.485Z,7.20
2023-01-02T15:59:30.242Z,5.45
2023-01-02T16:02:02.903Z,6.38
2023-01-02T16:04:35.160Z,6.32
2023-01-02T16:07:16.797Z,6.05
2023-01-02T16:09:58.978Z,4.78
2023-01-02T16:12:28.194Z,5.40
2023-01-02T16:15:02.341Z,5.80
2023-01-02T16:17:38.095Z,4.80
2023-01-02T16:20:11.911Z,3.70
2023-01-02T16:22:46.185Z,3.53
2023-01-02T16:25:20.023Z,4.72
2023-01-02T16:27:56.174Z,3.72
2023-01-02T16:30:37.887Z,4.30
2023-01-02T16:33:27.053Z,6.95
2023-01-02T16:36:01.433Z,6.07
2023-01-02T16:38:32.445Z,13.70
2023-01-02T16:41:12.598Z,12.15
2023-01-02T16:43:48.263Z,11.45
2023-01-02T16:46:18.301Z,11.02
2023-01-02T16:48:48.537Z,9.88
2023-01-02T16:51:18.106Z,8.50
2023-01-02T16:53:49.746Z,9.45
2023-01-02T16:56:18.425Z,10.27
2023-01-02T16:58:49.334Z,11.25
2023-01-02T17:01:26.746Z,11.55
2023-01-02T17:03:59.740Z,10.23
2023-01-02T17:06:28.377Z,8.40
2023-01-02T17:08:57.298Z,9.68
2023-01-02T17:11:27.207Z,11.18
2023-01-02T17:14:02.649Z,11.00
2023-01-02T17:16:33.452Z,9.65
2023-01-02T17:19:03.626Z,9.50
2023-01-02T17:21:33.087Z,9.43
2023-01-02T17:24:02.153Z,8.95
2023-01-02T17:26:30.870Z,10.35
2023-01-02T17:29:01.884Z,7.85
2023-01-02T17:31:31.622Z,12.15
2023-01-02T17:34:02.310Z,13.05
2023-01-02T17:36:33.615Z,15.82
2023-01-02T17:39:02.597Z,22.27
2023-01-02T17:41:34.235Z,26.38
2023-01-02T17:44:04.125Z,24.75
2023-01-02T17:47:16.624Z,27.27
2023-01-02T17:49:23.103Z,22.27
2023-01-02T17:51:59.250Z,16.63
2023-01-02T17:54:29.231Z,16.85
2023-01-02T17:56:58.344Z,14.95
2023-01-02T17:59:27.385Z,17.35
2023-01-02T18:02:01.567Z,18.98
2023-01-02T18:04:31.170Z,20.95
2023-01-02T18:07:02.616Z,20.02
2023-01-02T18:09:33.819Z,19.48
2023-01-02T18:12:02.378Z,20.70
2023-01-02T18:14:37.342Z,17.33
2023-01-02T18:17:16.410Z,17.40
2023-01-02T18:19:48.351Z,13.50
2023-01-02T18:22:24.344Z,12.48
2023-01-02T18:24:55.486Z,12.93
2023-01-02T18:27:27.867Z,12.32
2023-01-02T18:30:00.694Z,12.02
2023-01-02T18:32:35.067Z,11.95
2023-01-02T18:35:55.048Z,14.23
2023-01-02T18:38:22.155Z,13.60
2023-01-02T18:40:53.689Z,14.23
2023-01-02T18:43:32.893Z,14.00
2023-01-02T18:46:16.525Z,11.80
2023-01-02T18:48:48.055Z,13.45
2023-01-02T18:51:21.075Z,17.15
2023-01-02T18:53:53.072Z,19.20
2023-01-02T18:56:26.183Z,19.88
2023-01-02T18:59:03.396Z,21.35
2023-01-02T19:01:36.737Z,23.08
2023-01-02T19:04:28.170Z,25.10
2023-01-02T19:07:03.534Z,27.17
2023-01-02T19:09:36.520Z,28.23
2023-01-02T19:12:44.587Z,27.13
2023-01-02T19:15:34.474Z,18.13
2023-01-02T19:18:21.321Z,16.98
2023-01-02T19:20:57.634Z,20.15
2023-01-02T19:23:31.758Z,20.40
2023-01-02T19:26:23.496Z,19.60
2023-01-02T19:29:05.645Z,18.55
2023-01-02T19:31:42.952Z,15.48
2023-01-02T19:34:40.346Z,15.82
2023-01-02T19:37:28.073Z,17.83
2023-01-02T19:39:59.463Z,18.15
2023-01-02T19:42:32.366Z,19.35
2023-01-02T19:45:03.946Z,23.88
2023-01-02T19:47:40.810Z,23.60
2023-01-02T19:50:14.202Z,21.77
2023-01-02T19:52:43.463Z,20.55
2023-01-02T19:55:14.464Z,19.85
2023-01-02T19:57:47.942Z,19.20
2023-01-02T20:00:19.720Z,16.63
2023-01-02T20:02:51.991Z,15.95
2023-01-02T20:05:22.977Z,16.05
2023-01-02T20:07:53.495Z,14.38
2023-01-02T20:10:22.920Z,14.57
2023-01-02T20:12:55.699Z,15.18
2023-01-02T20:15:26.249Z,13.18
2023-01-02T20:17:56.848Z,9.32
2023-01-02T20:20:31.477Z,5.28
2023-01-02T20:23:05.988Z,5.60
2023-01-02T20:25:36.673Z,5.90
2023-01-02T20:28:07.012Z,6.18
2023-01-02T20:30:36.739Z,5.10
2023-01-02T20:33:06.690Z,7.50
2023-01-02T20:35:35.501Z,8.88
2023-01-02T20:38:04.245Z,7.18
2023-01-02T20:40:39.721Z,6.82
2023-01-02T20:43:09.893Z,3.20
2023-01-02T20:45:40.565Z,5.20
2023-01-02T20:48:09.222Z,5.10
2023-01-02T20:50:37.835Z,5.05
2023-01-02T20:53:07.079Z,5.10
2023-01-02T20:55:38.025Z,7.22
2023-01-02T20:58:07.271Z,6.75
2023-01-02T21:00:38.306Z,8.10
2023-01-02T21:03:08.775Z,7.25
2023-01-02T21:05:39.746Z,5.10
2023-01-02T21:08:09.857Z,4.28
2023-01-02T21:10:38.506Z,3.70
2023-01-02T21:13:11.034Z,3.40
2023-01-02T21:15:50.116Z,4.28
2023-01-02T21:18:20.904Z,3.92
2023-01-02T21:20:51.909Z,4.18
2023-01-02T21:23:21.852Z,4.43
2023-01-02T21:25:51.387Z,3.28
2023-01-02T21:28:21.166Z,3.50
2023-01-02T21:30:51.939Z,3.47
2023-01-02T21:33:22.205Z,2.72
2023-01-02T21:35:52.809Z,2.70
2023-01-02T21:38:22.959Z,3.38
2023-01-02T21:40:52.046Z,3.97
2023-01-02T21:43:21.390Z,4.82
2023-01-02T21:45:51.424Z,7.60
2023-01-02T21:48:20.071Z,3.17
2023-01-02T21:50:48.474Z,3.67
2023-01-02T21:53:18.290Z,3.85
2023-01-02T21:55:47.102Z,3.60
2023-01-02T21:58:15.860Z,2.53
2023-01-02T22:00:44.693Z,2.53
2023-01-02T22:03:14.723Z,2.08
2023-01-02T22:05:43.592Z,1.67
2023-01-02T22:08:12.022Z,2.65
2023-01-02T22:10:40.870Z,3.10
2023-01-02T22:13:09.454Z,2.17
2023-01-02T22:15:38.102Z,1.80
2023-01-02T22:18:06.928Z,2.22
2023-01-02T22:20:36.971Z,2.20
2023-01-02T22:23:08.649Z,2.30
2023-01-02T22:25:38.150Z,1.88
2023-01-02T22:28:07.107Z,1.55
2023-01-02T22:30:35.733Z,1.90
2023-01-02T22:33:05.079Z,2.13
2023-01-02T22:35:34.430Z,2.15
2023-01-02T22:38:04.844Z,2.10
2023-01-02T22:40:35.022Z,1.73
2023-01-02T22:43:05.660Z,1.60
2023-01-02T22:45:43.408Z,1.38
2023-01-02T22:48:20.493Z,1.20
2023-01-02T22:50:51.203Z,1.70
2023-01-02T22:53:26.010Z,1.55
2023-01-02T22:55:54.992Z,1.90
2023-01-02T22:58:24.169Z,1.80
2023-01-02T23:00:59.002Z,2.40
2023-01-02T23:03:30.629Z,1.90
2023-01-02T23:05:59.240Z,2.00
2023-01-02T23:08:29.552Z,1.67
2023-01-02T23:10:58.323Z,1.80
2023-01-02T23:13:27.060Z,1.50
2023-01-02T23:16:13.227Z,1.52
2023-01-02T23:18:59.174Z,1.20
2023-01-02T23:21:29.634Z,1.15
2023-01-02T23:24:01.905Z,0.90
2023-01-02T23:26:35.617Z,1.90
2023-01-02T23:29:08.391Z,1.50
2023-01-02T23:31:39.438Z,1.35
2023-01-02T23:34:08.707Z,1.15
2023-01-02T23:36:38.097Z,1.50
2023-01-02T23:39:09.935Z,1.20
2023-01-02T23:41:38.575Z,1.77
2023-01-02T23:44:07.438Z,1.42
2023-01-02T23:46:36.936Z,1.50
2023-01-02T23:49:08.532Z,1.70
2023-01-02T23:51:37.267Z,1.40
2023-01-02T23:54:07.946Z,1.60
2023-01-02T23:56:40.168Z,1.55
2023-01-02T23:59:11.179Z,1.60
